Time;durP1;ratioP1;P1;durP2;ratioP2;P2;SDS_P1;SDS_P2;PMS_P1;PMS_P2;Temp;Humidity;BMP_temperature;BMP_pressure;BME280_temperature;BME280_humidity;BME280_pressure;Samples;Min_cycle;Max_cycle;Signal;HPM_P1;HPM_P2
2023/10/12 00:01:59;;;;;;;0.28;0.10;;;;;;;22.06;100.00;101050.59;10457815;28;20041;-80
2023/10/12 00:07:10;;;;;;;0.13;0.03;;;;;;;22.21;100.00;101044.16;10438187;28;20144;-80
2023/10/12 00:12:14;;;;;;;1.00;0.50;;;;;;;22.34;100.00;101050.88;10457549;28;20514;-80
2023/10/12 00:17:19;;;;;;;1.02;0.52;;;;;;;22.17;100.00;101048.63;10453931;28;20041;-80
2023/10/12 00:22:23;;;;;;;0.40;0.35;;;;;;;22.22;100.00;101048.53;10457719;28;20049;-80
2023/10/12 00:27:26;;;;;;;0.52;0.50;;;;;;;22.17;100.00;101061.75;10457259;28;20068;-80
2023/10/12 00:32:28;;;;;;;1.30;0.80;;;;;;;22.14;100.00;101056.56;10438215;28;20045;-80
2023/10/12 00:37:32;;;;;;;2.17;0.55;;;;;;;21.99;100.00;101076.09;10457112;28;20053;-82
2023/10/12 00:42:35;;;;;;;1.23;0.63;;;;;;;21.82;100.00;101068.53;10439823;28;20048;-79
2023/10/12 00:47:44;;;;;;;0.60;0.20;;;;;;;21.74;100.00;101059.94;10456444;28;20393;-80
2023/10/12 00:52:56;;;;;;;1.33;0.28;;;;;;;21.72;100.00;101061.72;10448619;28;20068;-81
2023/10/12 00:57:58;;;;;;;1.25;0.60;;;;;;;21.86;100.00;101074.59;10439828;28;20504;-80
2023/10/12 01:03:27;;;;;;;0.30;0.28;;;;;;;21.98;100.00;101073.50;10457220;28;20052;-81
2023/10/12 01:08:30;;;;;;;1.98;0.60;;;;;;;21.68;100.00;101074.00;10440393;28;20049;-81
2023/10/12 01:13:33;;;;;;;1.17;0.70;;;;;;;21.59;100.00;101062.84;10463486;28;20055;-80
2023/10/12 01:18:35;;;;;;;0.70;0.43;;;;;;;21.62;100.00;101074.13;10450456;28;20040;-81
2023/10/12 01:23:41;;;;;;;0.68;0.47;;;;;;;21.79;100.00;101072.97;10462877;28;20044;-82
2023/10/12 01:28:48;;;;;;;1.55;0.47;;;;;;;21.56;100.00;101069.81;10469327;28;20053;-81
2023/10/12 01:33:54;;;;;;;2.08;1.02;;;;;;;21.49;100.00;101076.06;10467285;28;20439;-82
2023/10/12 01:39:13;;;;;;;6.70;0.90;;;;;;;21.34;100.00;101086.78;10459327;28;20051;-83
2023/10/12 01:44:15;;;;;;;1.65;1.27;;;;;;;21.51;100.00;101095.25;10459452;28;20045;-82
2023/10/12 01:49:18;;;;;;;1.42;0.40;;;;;;;20.82;100.00;101078.81;10431916;28;20045;-83
2023/10/12 01:54:24;;;;;;;1.33;0.80;;;;;;;21.19;100.00;101072.19;10458392;28;20049;-81
2023/10/12 01:59:26;;;;;;;1.15;0.63;;;;;;;21.21;100.00;101067.81;10448784;28;21447;-80
2023/10/12 02:04:28;;;;;;;0.32;0.32;;;;;;;21.34;100.00;101055.34;10441504;28;20136;-80
2023/10/12 02:09:31;;;;;;;1.38;1.00;;;;;;;21.37;100.00;101055.31;10448176;28;20072;-80
2023/10/12 02:14:33;;;;;;;7.55;2.25;;;;;;;21.38;100.00;101059.66;10437247;28;20076;-80
2023/10/12 02:19:42;;;;;;;0.47;0.45;;;;;;;21.04;100.00;101065.41;10431143;28;20080;-80
2023/10/12 02:24:50;;;;;;;1.50;1.00;;;;;;;21.39;100.00;101079.75;10452921;28;20480;-80
2023/10/12 02:29:56;;;;;;;0.60;0.55;;;;;;;21.22;100.00;101080.88;10436251;28;20488;-80
2023/10/12 02:35:00;;;;;;;1.52;1.13;;;;;;;21.12;100.00;101066.16;10435685;28;20087;-80
2023/10/12 02:40:03;;;;;;;1.45;0.85;;;;;;;21.09;100.00;101071.47;10433815;28;20396;-80
2023/10/12 02:50:22;;;;;;;1.30;0.90;;;;;;;21.25;100.00;101051.13;10449415;28;20076;-80
2023/10/12 03:00:44;;;;;;;1.88;0.80;;;;;;;21.46;100.00;101044.69;10460448;28;20404;-80
2023/10/12 03:05:46;;;;;;;0.45;0.20;;;;;;;21.60;100.00;101061.94;10437134;28;20139;-81
2023/10/12 03:16:24;;;;;;;0.40;0.30;;;;;;;21.30;100.00;101111.31;10459847;28;20049;-81
2023/10/12 03:21:33;;;;;;;0.15;0.13;;;;;;;21.39;100.00;101121.66;10460699;28;20091;-81
2023/10/12 03:26:35;;;;;;;0.10;0.10;;;;;;;20.67;100.00;101127.00;10419357;28;20049;-81
2023/10/12 03:36:48;;;;;;;0.17;0.10;;;;;;;20.69;100.00;101134.84;10462690;28;20049;-81
2023/10/12 03:42:10;;;;;;;0.00;0.00;;;;;;;21.06;100.00;101139.63;10438036;28;20090;-81
2023/10/12 03:47:15;;;;;;;0.00;0.00;;;;;;;21.32;100.00;101127.91;10441676;28;20135;-81
2023/10/12 03:52:39;;;;;;;0.00;0.00;;;;;;;21.02;100.00;101101.28;10440815;28;20053;-81
2023/10/12 03:58:00;;;;;;;0.00;0.00;;;;;;;20.66;100.00;101093.00;10456853;28;20049;-81
2023/10/12 04:03:12;;;;;;;0.10;0.10;;;;;;;20.71;100.00;101097.28;10442145;28;20045;-81
2023/10/12 04:08:19;;;;;;;0.03;0.03;;;;;;;21.57;100.00;101115.28;10457595;28;20071;-80
2023/10/12 04:18:28;;;;;;;0.00;0.00;;;;;;;21.56;100.00;101124.88;10457903;28;20068;-81
2023/10/12 04:28:35;;;;;;;0.00;0.00;;;;;;;21.40;100.00;101134.75;10453931;28;20049;-81
2023/10/12 04:33:44;;;;;;;1.10;0.10;;;;;;;20.98;100.00;101131.88;10459801;28;20452;-81
2023/10/12 04:38:47;;;;;;;0.00;0.00;;;;;;;21.77;100.00;101132.44;10458278;28;20036;-81
2023/10/12 04:44:03;;;;;;;0.10;0.10;;;;;;;21.67;100.00;101139.59;10459620;28;20045;-81
2023/10/12 04:54:25;;;;;;;0.03;0.00;;;;;;;21.16;100.00;101135.97;10457145;28;20048;-82
2023/10/12 04:59:42;;;;;;;0.10;0.00;;;;;;;21.32;100.00;101141.00;10449107;28;20055;-82
2023/10/12 05:09:49;;;;;;;0.00;0.00;;;;;;;20.84;100.00;101160.84;10452439;28;20407;-82
2023/10/12 05:14:55;;;;;;;0.00;0.00;;;;;;;20.98;100.00;101154.56;10453222;28;20521;-82
2023/10/12 05:19:57;;;;;;;0.00;0.00;;;;;;;20.23;100.00;101138.84;10450891;28;20045;-83
2023/10/12 05:24:58;;;;;;;0.00;0.00;;;;;;;20.52;100.00;101138.50;10439440;28;20484;-82
2023/10/12 05:30:05;;;;;;;0.10;0.10;;;;;;;20.63;100.00;101146.22;10456048;28;20069;-82
2023/10/12 05:35:15;;;;;;;0.00;0.00;;;;;;;19.34;100.00;101154.38;10443032;28;20144;-82
2023/10/12 05:40:17;;;;;;;0.00;0.00;;;;;;;19.89;100.00;101158.34;10450145;28;20048;-82
2023/10/12 05:45:22;;;;;;;0.00;0.00;;;;;;;19.96;100.00;101167.88;10451428;28;20057;-83
2023/10/12 05:50:24;;;;;;;0.00;0.00;;;;;;;18.98;100.00;101166.78;10442985;28;20032;-83
2023/10/12 05:55:27;;;;;;;0.00;0.00;;;;;;;18.80;100.00;101178.16;10460477;28;20049;-84
2023/10/12 06:00:45;;;;;;;0.10;0.00;;;;;;;18.29;100.00;101179.13;10454575;28;20136;-85
2023/10/12 06:05:48;;;;;;;0.00;0.00;;;;;;;18.38;100.00;101186.09;10431174;28;20110;-85
2023/10/12 06:10:50;;;;;;;0.00;0.00;;;;;;;17.88;100.00;101195.66;10422879;28;20404;-85
2023/10/12 06:15:53;;;;;;;0.35;0.20;;;;;;;18.06;100.00;101200.88;10433953;28;20531;-85
2023/10/12 06:20:58;;;;;;;0.00;0.00;;;;;;;18.16;100.00;101221.75;10446456;28;20041;-85
2023/10/12 06:26:00;;;;;;;0.00;0.00;;;;;;;17.76;100.00;101220.81;10445350;28;20131;-85
2023/10/12 06:31:08;;;;;;;0.00;0.00;;;;;;;18.37;100.00;101232.16;10436827;28;20489;-85
2023/10/12 06:36:16;;;;;;;0.00;0.00;;;;;;;17.89;100.00;101239.09;10459773;28;20400;-85
2023/10/12 06:46:54;;;;;;;0.00;0.00;;;;;;;18.52;100.00;101259.97;10443950;28;20127;-85
2023/10/12 06:52:02;;;;;;;0.00;0.00;;;;;;;18.61;100.00;101273.88;10452323;28;20037;-84
2023/10/12 07:02:29;;;;;;;0.00;0.00;;;;;;;18.83;100.00;101298.19;10461743;28;20485;-85
2023/10/12 07:07:41;;;;;;;0.00;0.00;;;;;;;18.25;100.00;101299.97;10468235;28;20068;-84
2023/10/12 07:12:48;;;;;;;0.35;0.13;;;;;;;18.73;100.00;101301.72;10457123;28;20033;-83
2023/10/12 07:17:51;;;;;;;0.00;0.00;;;;;;;19.12;100.00;101308.59;10467505;28;20041;-83
2023/10/12 07:22:56;;;;;;;0.00;0.00;;;;;;;19.13;100.00;101312.06;10469059;28;20033;-83
2023/10/12 07:28:01;;;;;;;0.00;0.00;;;;;;;18.75;100.00;101315.59;10454575;28;20053;-83
2023/10/12 07:33:10;;;;;;;0.00;0.00;;;;;;;18.59;100.00;101315.63;10458663;28;20099;-84
2023/10/12 07:38:13;;;;;;;0.00;0.00;;;;;;;19.01;100.00;101329.53;10472168;28;20113;-83
2023/10/12 07:43:18;;;;;;;0.00;0.00;;;;;;;18.75;100.00;101341.69;10479533;28;20458;-83
2023/10/12 07:48:31;;;;;;;0.00;0.00;;;;;;;18.59;100.00;101346.94;10455872;28;20041;-83
2023/10/12 07:53:37;;;;;;;0.25;0.10;;;;;;;18.54;100.00;101346.06;10465685;28;20107;-84
2023/10/12 07:58:38;;;;;;;0.00;0.00;;;;;;;18.54;100.00;101346.91;10452674;28;20045;-84
2023/10/12 08:03:50;;;;;;;0.13;0.10;;;;;;;18.84;100.00;101352.13;10438066;28;20132;-84
2023/10/12 08:08:52;;;;;;;0.00;0.00;;;;;;;18.87;100.00;101353.00;10437316;28;20095;-84
2023/10/12 08:13:55;;;;;;;0.08;0.00;;;;;;;19.11;100.00;101345.16;10461376;28;20496;-85
2023/10/12 08:24:22;;;;;;;0.10;0.00;;;;;;;19.29;100.00;101350.34;10492749;28;20139;-83
2023/10/12 08:45:17;;;;;;;0.00;0.00;;;;;;;18.94;100.00;101371.28;10464522;28;20555;-84
2023/10/12 08:55:25;;;;;;;0.00;0.00;;;;;;;18.83;100.00;101360.84;10440251;28;20052;-86
2023/10/12 09:05:39;;;;;;;0.00;0.00;;;;;;;20.19;100.00;101370.84;10445862;28;20195;-85
2023/10/12 09:16:09;;;;;;;0.05;0.05;;;;;;;19.91;100.00;101371.00;10442428;28;20053;-84
2023/10/12 09:26:33;;;;;;;0.00;0.00;;;;;;;19.54;100.00;101358.09;10464554;28;20143;-83
2023/10/12 09:36:44;;;;;;;0.00;0.00;;;;;;;19.59;100.00;101343.25;10468094;28;20063;-84
2023/10/12 09:41:56;;;;;;;0.10;0.03;;;;;;;19.82;100.00;101355.34;10468009;28;20041;-84
2023/10/12 09:46:57;;;;;;;0.17;0.00;;;;;;;19.43;100.00;101341.56;10463443;28;20049;-83
2023/10/12 09:52:13;;;;;;;0.03;0.03;;;;;;;19.53;100.00;101353.72;10469658;28;20489;-82
2023/10/12 09:57:19;;;;;;;0.00;0.00;;;;;;;19.25;100.00;101343.38;10460896;28;20464;-82
2023/10/12 10:02:28;;;;;;;0.00;0.00;;;;;;;19.95;100.00;101356.19;10459314;28;20099;-82
2023/10/12 10:07:36;;;;;;;0.10;0.03;;;;;;;19.78;100.00;101358.81;10458459;28;20045;-82
2023/10/12 10:12:42;;;;;;;0.00;0.00;;;;;;;20.48;100.00;101361.91;10439382;28;20488;-82
2023/10/12 10:17:52;;;;;;;0.00;0.00;;;;;;;20.06;100.00;101369.19;10424879;28;20056;-81
2023/10/12 10:22:56;;;;;;;0.00;0.00;;;;;;;20.25;100.00;101352.47;10438778;28;20117;-81
2023/10/12 10:27:58;;;;;;;0.08;0.00;;;;;;;20.05;100.00;101346.53;10462938;28;20061;-81
2023/10/12 10:33:14;;;;;;;0.00;0.00;;;;;;;19.61;100.00;101349.34;10465315;28;20140;-82
2023/10/12 10:38:17;;;;;;;0.00;0.00;;;;;;;19.68;100.00;101352.78;10472732;28;20052;-82
2023/10/12 10:43:19;;;;;;;0.00;0.00;;;;;;;19.85;100.00;101331.81;10462086;28;20072;-82
2023/10/12 10:48:22;;;;;;;0.03;0.03;;;;;;;20.10;100.00;101334.28;10478359;28;20052;-82
2023/10/12 10:53:52;;;;;;;0.00;0.00;;;;;;;19.41;100.00;101327.63;10474631;28;20077;-82
2023/10/12 10:59:02;;;;;;;0.20;0.10;;;;;;;19.49;100.00;101325.88;10469093;28;20065;-83
2023/10/12 11:04:08;;;;;;;0.00;0.00;;;;;;;19.85;100.00;101334.41;10485791;28;20047;-83
2023/10/12 11:09:14;;;;;;;0.43;0.20;;;;;;;19.94;100.00;101329.13;10476884;28;20045;-82
2023/10/12 11:14:18;;;;;;;0.10;0.10;;;;;;;20.65;100.00;101327.72;10478605;28;20091;-83
2023/10/12 11:19:23;;;;;;;0.00;0.00;;;;;;;20.17;100.00;101315.03;10478319;28;20052;-82
2023/10/12 11:24:26;;;;;;;0.00;0.00;;;;;;;20.59;100.00;101317.31;10457227;28;20083;-81
2023/10/12 11:29:28;;;;;;;0.10;0.10;;;;;;;20.22;100.00;101323.72;10431671;28;20053;-81
2023/10/12 11:34:33;;;;;;;0.10;0.10;;;;;;;20.82;100.00;101318.88;10419510;28;20463;-81
2023/10/12 11:39:46;;;;;;;0.10;0.10;;;;;;;20.68;100.00;101296.28;10421974;28;20045;-82
2023/10/12 11:44:48;;;;;;;0.10;0.10;;;;;;;20.32;100.00;101287.00;10445461;28;20060;-81
2023/10/12 11:49:58;;;;;;;0.10;0.00;;;;;;;21.09;100.00;101286.28;10460495;28;20047;-82
2023/10/12 11:55:19;;;;;;;0.43;0.15;;;;;;;20.88;100.00;101277.78;10458677;28;20111;-83
2023/10/12 12:00:38;;;;;;;0.88;0.30;;;;;;;20.95;100.00;101282.94;10444660;28;20045;-82
2023/10/12 12:05:41;;;;;;;0.08;0.08;;;;;;;21.26;100.00;101286.06;10460125;28;20049;-83
2023/10/12 12:10:53;;;;;;;0.00;0.00;;;;;;;21.48;100.00;101273.53;10460006;28;20048;-81
2023/10/12 12:15:58;;;;;;;0.47;0.30;;;;;;;21.73;100.00;101288.97;10459945;28;20140;-81
2023/10/12 12:21:14;;;;;;;0.50;0.30;;;;;;;21.90;100.00;101282.59;10460976;28;20408;-81
2023/10/12 12:26:19;;;;;;;0.63;0.43;;;;;;;21.30;100.00;101273.78;10444523;28;20132;-82
2023/10/12 12:31:24;;;;;;;0.20;0.10;;;;;;;21.60;100.00;101276.91;10464658;28;20059;-83
2023/10/12 12:36:26;;;;;;;0.45;0.10;;;;;;;21.73;100.00;101277.63;10464189;28;20120;-84
2023/10/12 12:41:30;;;;;;;0.10;0.10;;;;;;;21.56;100.00;101284.78;10467336;28;20047;-85
2023/10/12 12:46:32;;;;;;;0.20;0.00;;;;;;;22.26;100.00;101290.75;10442624;28;20091;-84
2023/10/12 12:51:35;;;;;;;0.98;0.47;;;;;;;22.31;100.00;101292.44;10457554;28;20095;-83
2023/10/12 12:56:37;;;;;;;0.88;0.50;;;;;;;21.92;100.00;101283.44;10457415;28;20407;-84
2023/10/12 13:01:41;;;;;;;0.00;0.00;;;;;;;21.79;100.00;101277.53;10440252;28;20045;-84
2023/10/12 13:06:44;;;;;;;0.50;0.45;;;;;;;21.19;100.00;101273.94;10456815;28;20055;-83
2023/10/12 13:11:47;;;;;;;0.10;0.10;;;;;;;21.06;100.00;101263.59;10458356;28;20049;-84
2023/10/12 13:16:49;;;;;;;2.05;1.08;;;;;;;21.31;100.00;101255.41;10450362;28;20043;-85
2023/10/12 13:21:52;;;;;;;0.45;0.45;;;;;;;20.92;100.00;101248.06;10456573;28;20508;-85
2023/10/12 13:26:55;;;;;;;0.70;0.17;;;;;;;21.24;100.00;101238.94;10439886;28;20114;-86
2023/10/12 13:31:56;;;;;;;0.40;0.40;;;;;;;21.79;100.00;101246.91;10456512;28;20049;-86
2023/10/12 13:36:58;;;;;;;0.30;0.20;;;;;;;21.85;100.00;101243.31;10439693;28;20052;-85
2023/10/12 13:42:00;;;;;;;0.05;0.00;;;;;;;22.01;100.00;101246.56;10455455;28;20052;-84
2023/10/12 13:47:04;;;;;;;1.30;1.20;;;;;;;22.36;100.00;101242.47;10455477;28;20511;-84
2023/10/12 13:52:10;;;;;;;0.88;0.73;;;;;;;22.02;100.00;101235.19;10455375;28;20045;-83
2023/10/12 13:57:14;;;;;;;0.98;0.60;;;;;;;22.30;100.00;101253.09;10455122;28;20045;-85
2023/10/12 14:02:16;;;;;;;0.45;0.17;;;;;;;22.08;100.00;101236.84;10454604;28;20053;-85
2023/10/12 14:07:18;;;;;;;0.65;0.60;;;;;;;22.19;100.00;101259.38;10439143;28;20147;-87
2023/10/12 14:12:20;;;;;;;1.90;0.40;;;;;;;22.82;100.00;101278.41;10419414;28;20087;-88
2023/10/12 14:17:24;;;;;;;0.30;0.30;;;;;;;22.65;100.00;101276.09;10414335;28;20083;-87
2023/10/12 14:22:26;;;;;;;0.73;0.43;;;;;;;22.18;100.00;101276.03;10447015;28;20102;-87
2023/10/12 14:27:29;;;;;;;0.85;0.32;;;;;;;21.66;100.00;101161.47;10438514;28;20443;-87
2023/10/12 14:32:30;;;;;;;1.17;0.55;;;;;;;21.83;100.00;101195.28;10438632;28;20041;-87
2023/10/12 14:37:36;;;;;;;0.63;0.47;;;;;;;22.25;100.00;101212.94;10437856;28;20045;-86
2023/10/12 14:42:40;;;;;;;0.55;0.30;;;;;;;22.44;100.00;101235.38;10453254;28;20131;-86
2023/10/12 14:47:44;;;;;;;0.60;0.50;;;;;;;22.14;100.00;101229.75;10446879;28;20056;-86
2023/10/12 14:52:46;;;;;;;0.30;0.30;;;;;;;22.49;100.00;101249.28;10455416;28;20088;-87
2023/10/12 14:57:49;;;;;;;2.38;0.70;;;;;;;21.04;100.00;101183.28;10461080;28;20052;-86
2023/10/12 15:02:52;;;;;;;0.85;0.38;;;;;;;21.62;100.00;101201.75;10463308;28;20090;-85
2023/10/12 15:07:55;;;;;;;2.83;1.85;;;;;;;21.40;100.00;101165.34;10462448;28;20103;-85
2023/10/12 15:12:58;;;;;;;1.63;1.13;;;;;;;21.04;100.00;101137.03;10464787;28;20488;-84
2023/10/12 15:18:03;;;;;;;0.80;0.60;;;;;;;20.52;100.00;101051.28;10448963;28;20068;-84
2023/10/12 15:23:09;;;;;;;0.80;0.63;;;;;;;20.69;100.00;100959.44;10462817;28;20484;-85
2023/10/12 15:28:11;;;;;;;1.73;0.93;;;;;;;21.03;100.00;100987.75;10462410;28;20052;-83
2023/10/12 15:33:14;;;;;;;2.45;1.15;;;;;;;20.80;100.00;101036.13;10443576;28;20523;-81
2023/10/12 15:38:16;;;;;;;1.02;0.80;;;;;;;21.07;100.00;101070.63;10460150;28;20045;-82
2023/10/12 15:43:19;;;;;;;1.60;1.08;;;;;;;21.25;100.00;101064.22;10443485;28;20052;-82
2023/10/12 15:48:26;;;;;;;1.42;0.82;;;;;;;21.30;100.00;101095.59;10461437;28;20568;-82
2023/10/12 15:53:29;;;;;;;0.73;0.30;;;;;;;21.54;100.00;101105.69;10459696;28;20037;-81
2023/10/12 15:58:31;;;;;;;3.33;1.45;;;;;;;21.72;100.00;101119.41;10460008;28;20072;-83
2023/10/12 16:03:33;;;;;;;0.40;0.40;;;;;;;21.71;100.00;101131.66;10458179;28;20122;-83
2023/10/12 16:08:36;;;;;;;1.17;0.90;;;;;;;21.36;100.00;101142.66;10460685;28;20095;-82
2023/10/12 16:13:38;;;;;;;1.02;0.75;;;;;;;21.50;100.00;101138.06;10460373;28;20052;-83
2023/10/12 16:18:41;;;;;;;1.42;0.80;;;;;;;21.26;100.00;101126.22;10458814;28;20053;-83
2023/10/12 16:23:52;;;;;;;1.55;1.08;;;;;;;21.27;100.00;101121.84;10459773;28;20464;-83
2023/10/12 16:28:55;;;;;;;1.52;1.42;;;;;;;22.08;100.00;101135.38;10458802;28;20052;-83
2023/10/12 16:33:59;;;;;;;1.40;0.75;;;;;;;21.31;100.00;101113.06;10457937;28;20084;-83
2023/10/12 16:39:03;;;;;;;1.02;0.45;;;;;;;21.69;100.00;101124.72;10457094;28;20488;-84
2023/10/12 16:44:05;;;;;;;1.20;0.82;;;;;;;21.28;100.00;101128.81;10457694;28;20048;-83
2023/10/12 16:49:11;;;;;;;1.23;0.80;;;;;;;21.55;100.00;101117.91;10445104;28;20057;-83
2023/10/12 16:54:13;;;;;;;3.13;1.00;;;;;;;21.80;100.00;101128.00;10457130;28;20079;-83
2023/10/12 16:59:18;;;;;;;1.23;0.80;;;;;;;21.39;100.00;101127.75;10429245;28;20045;-83
2023/10/12 17:04:45;;;;;;;0.70;0.43;;;;;;;21.30;100.00;101121.81;10429962;28;20049;-83
2023/10/12 17:09:47;;;;;;;1.20;0.43;;;;;;;21.38;100.00;101131.28;10455722;28;20466;-85
2023/10/12 17:14:49;;;;;;;0.55;0.52;;;;;;;21.52;100.00;101136.31;10439525;28;20078;-84
2023/10/12 17:19:51;;;;;;;1.42;0.85;;;;;;;21.39;100.00;101116.44;10451811;28;20044;-84
2023/10/12 17:24:54;;;;;;;0.65;0.65;;;;;;;20.96;100.00;101111.84;10453971;28;20128;-83
2023/10/12 17:29:56;;;;;;;2.95;1.55;;;;;;;21.25;100.00;101103.53;10433175;28;20041;-84
2023/10/12 17:34:58;;;;;;;1.73;0.30;;;;;;;21.08;100.00;101119.50;10447174;28;20404;-83
2023/10/12 17:40:00;;;;;;;0.73;0.73;;;;;;;20.97;100.00;101119.66;10453031;28;20041;-82
2023/10/12 17:45:09;;;;;;;8.05;0.32;;;;;;;21.68;100.00;101136.09;10453834;28;20033;-84
2023/10/12 17:50:14;;;;;;;0.40;0.40;;;;;;;21.60;100.00;101133.56;10452253;28;20045;-83
2023/10/12 17:55:16;;;;;;;0.30;0.30;;;;;;;21.35;100.00;101140.94;10454860;28;20447;-83
2023/10/12 18:00:19;;;;;;;0.85;0.30;;;;;;;21.80;100.00;101133.25;10451515;28;20132;-84
2023/10/12 18:05:21;;;;;;;0.82;0.50;;;;;;;21.33;100.00;101143.59;10424983;28;20041;-83
2023/10/12 18:10:25;;;;;;;1.55;1.20;;;;;;;21.12;100.00;101122.94;10435639;28;20132;-82
2023/10/12 18:15:28;;;;;;;0.50;0.50;;;;;;;21.65;100.00;101128.25;10435966;28;20041;-82
2023/10/12 18:20:29;;;;;;;1.00;0.70;;;;;;;21.37;100.00;101121.66;10443629;28;20116;-84
2023/10/12 18:25:32;;;;;;;0.50;0.40;;;;;;;21.98;100.00;101131.19;10445934;28;20055;-83
2023/10/12 18:30:36;;;;;;;0.63;0.63;;;;;;;21.29;100.00;101114.84;10440871;28;20091;-82
2023/10/12 18:35:38;;;;;;;0.77;0.57;;;;;;;21.92;100.00;101126.06;10440865;28;20099;-82
2023/10/12 18:40:41;;;;;;;1.55;1.08;;;;;;;21.16;100.00;101109.78;10442390;28;20048;-83
2023/10/12 18:45:54;;;;;;;1.17;0.50;;;;;;;21.36;100.00;101116.47;10458387;28;20041;-83
2023/10/12 18:51:09;;;;;;;1.90;1.17;;;;;;;21.65;100.00;101115.16;10456005;28;20459;-83
2023/10/12 18:56:12;;;;;;;1.88;1.08;;;;;;;21.49;100.00;101115.38;10443581;28;20098;-82
2023/10/12 19:01:15;;;;;;;0.95;0.82;;;;;;;21.42;100.00;101105.03;10437256;28;20144;-81
2023/10/12 19:06:16;;;;;;;0.80;0.70;;;;;;;21.69;100.00;101120.31;10453571;28;20045;-81
2023/10/12 19:11:18;;;;;;;1.85;1.35;;;;;;;21.37;100.00;101128.69;10448946;28;20046;-82
2023/10/12 19:16:20;;;;;;;1.90;1.33;;;;;;;21.47;100.00;101130.28;10435361;28;20045;-82
2023/10/12 19:21:22;;;;;;;2.00;1.42;;;;;;;21.70;100.00;101123.84;10458950;28;20401;-82
2023/10/12 19:26:24;;;;;;;5.38;1.52;;;;;;;22.43;100.00;101149.63;10460379;28;20106;-82
2023/10/12 19:31:27;;;;;;;1.23;1.08;;;;;;;22.02;100.00;101119.75;10432563;28;20148;-83
2023/10/12 19:36:29;;;;;;;1.35;0.95;;;;;;;22.03;100.00;101129.34;10454547;28;20040;-82
2023/10/12 19:41:30;;;;;;;1.65;1.13;;;;;;;22.01;100.00;101110.16;10453035;28;20044;-82
2023/10/12 19:46:32;;;;;;;1.80;1.10;;;;;;;22.28;100.00;101139.41;10459676;28;20068;-84
2023/10/12 19:51:34;;;;;;;1.15;0.95;;;;;;;22.44;100.00;101139.97;10442027;28;20148;-83
2023/10/12 19:56:35;;;;;;;1.00;0.63;;;;;;;22.08;100.00;101131.91;10459589;28;20049;-83
2023/10/12 20:01:46;;;;;;;1.75;0.95;;;;;;;21.95;100.00;101126.88;10458752;28;20048;-83
2023/10/12 20:06:48;;;;;;;2.83;1.98;;;;;;;22.09;100.00;101113.50;10457943;28;20167;-82
2023/10/12 20:11:50;;;;;;;2.00;1.52;;;;;;;22.13;100.00;101125.69;10444616;28;20134;-82
2023/10/12 20:16:51;;;;;;;2.92;1.48;;;;;;;22.29;100.00;101134.09;10435664;28;20407;-82
2023/10/12 20:21:53;;;;;;;0.68;0.50;;;;;;;22.54;100.00;101131.03;10440057;28;20045;-82
2023/10/12 20:26:55;;;;;;;1.42;1.23;;;;;;;22.02;100.00;101119.75;10456683;28;20048;-84
2023/10/12 20:31:58;;;;;;;1.25;0.90;;;;;;;22.60;100.00;101130.06;10457712;28;20036;-84
2023/10/12 20:37:01;;;;;;;3.90;1.33;;;;;;;22.27;100.00;101116.66;10441947;28;20170;-83
2023/10/12 20:42:03;;;;;;;2.53;1.02;;;;;;;22.27;100.00;101127.16;10457135;28;20051;-83
2023/10/12 20:47:05;;;;;;;2.58;1.40;;;;;;;22.67;100.00;101131.66;10456082;28;20143;-83
2023/10/12 20:52:07;;;;;;;0.85;0.77;;;;;;;21.85;100.00;101115.69;10456729;28;20057;-83
2023/10/12 20:57:10;;;;;;;2.55;0.98;;;;;;;22.31;100.00;101124.47;10449796;28;20049;-82
2023/10/12 21:02:16;;;;;;;1.42;1.02;;;;;;;22.74;100.00;101133.25;10467949;28;20140;-85
2023/10/12 21:07:22;;;;;;;0.65;0.65;;;;;;;22.12;100.00;101113.44;10441875;28;20044;-82
2023/10/12 21:12:27;;;;;;;1.95;1.55;;;;;;;22.15;100.00;101113.38;10438018;28;20106;-83
2023/10/12 21:17:39;;;;;;;2.20;1.23;;;;;;;22.55;100.00;101118.75;10441195;28;20088;-84
2023/10/12 21:22:52;;;;;;;3.05;1.30;;;;;;;22.18;100.00;101118.56;10454748;28;20090;-84
2023/10/12 21:27:58;;;;;;;1.52;1.13;;;;;;;22.60;100.00;101116.94;10445354;28;20052;-84
2023/10/12 21:33:10;;;;;;;0.98;0.68;;;;;;;22.44;100.00;101119.88;10424659;28;20056;-83
2023/10/12 21:38:35;;;;;;;3.42;1.77;;;;;;;22.16;100.00;101107.22;10449524;28;20039;-83
2023/10/12 21:43:37;;;;;;;1.85;1.13;;;;;;;22.03;100.00;101090.00;10452605;28;20051;-82
2023/10/12 21:48:39;;;;;;;1.50;0.93;;;;;;;22.08;100.00;101080.28;10442206;28;20049;-82
2023/10/12 21:53:41;;;;;;;5.25;1.30;;;;;;;22.65;100.00;101091.44;10431390;28;20045;-83
2023/10/12 21:58:45;;;;;;;1.67;1.35;;;;;;;22.30;100.00;101079.88;10436988;28;20078;-82
2023/10/12 22:03:48;;;;;;;3.60;1.90;;;;;;;22.13;100.00;101078.44;10434900;28;20399;-82
2023/10/12 22:08:56;;;;;;;2.38;0.95;;;;;;;22.54;100.00;101082.91;10452311;28;20045;-83
2023/10/12 22:14:48;;;;;;;1.27;0.60;;;;;;;22.64;100.00;101079.19;10452644;28;20036;-83
2023/10/12 22:19:28;;;;;;;;;;;;;;;22.41;100.00;101077.91;10433021;28;20068;-83
2023/10/12 22:24:30;;;;;;;1.42;1.13;;;;;;;22.38;100.00;101067.44;10451589;28;19932;-83
2023/10/12 22:29:32;;;;;;;6.07;1.88;;;;;;;22.22;100.00;101047.69;10439918;28;20136;-81
2023/10/12 22:34:34;;;;;;;1.45;0.93;;;;;;;22.68;100.00;101072.97;10426291;28;20036;-82
2023/10/12 22:39:41;;;;;;;1.17;0.88;;;;;;;22.72;100.00;101081.63;10433254;28;20061;-83
2023/10/12 22:44:42;;;;;;;2.42;1.13;;;;;;;22.10;100.00;101061.91;10450124;28;20064;-82
2023/10/12 22:49:46;;;;;;;1.30;0.95;;;;;;;22.38;100.00;101062.19;10429454;28;20045;-82
2023/10/12 22:54:48;;;;;;;3.90;3.08;;;;;;;22.77;100.00;101085.03;10428854;28;20048;-82
2023/10/12 22:59:50;;;;;;;2.60;1.15;;;;;;;22.53;100.00;101083.78;10433444;28;20048;-82
2023/10/12 23:04:52;;;;;;;1.38;0.93;;;;;;;22.21;100.00;101080.06;10443867;28;20099;-82
2023/10/12 23:10:00;;;;;;;5.78;1.08;;;;;;;22.53;100.00;101075.91;10419372;28;20392;-82
2023/10/12 23:15:03;;;;;;;3.15;1.67;;;;;;;22.05;100.00;101059.38;10440622;28;20045;-82
2023/10/12 23:20:15;;;;;;;3.22;1.65;;;;;;;22.52;100.00;101069.81;10457347;28;20045;-81
2023/10/12 23:25:17;;;;;;;2.33;1.02;;;;;;;22.30;100.00;101066.75;10427463;28;20037;-82
2023/10/12 23:30:18;;;;;;;3.83;1.75;;;;;;;22.32;100.00;101067.56;10448264;28;20124;-82
2023/10/12 23:40:47;;;;;;;3.08;2.05;;;;;;;22.58;100.00;101068.81;10455877;28;20059;-81
2023/10/12 23:45:58;;;;;;;1.42;1.33;;;;;;;22.12;100.00;101071.47;10457765;28;20037;-82
2023/10/12 23:51:02;;;;;;;1.55;0.57;;;;;;;22.28;100.00;101065.91;10454801;28;20135;-83
2023/10/12 23:56:09;;;;;;;3.30;0.85;;;;;;;22.52;100.00;101063.72;10437679;28;20474;-81
